Terminal Aerodrome Forecast
Issued by NWS Greer, SC

Home | Current Version | Previous Version | Text Only | Print | Product List | Glossary On
Versions: 1 2 3 4 5 6 7 8 9 10 11 12 13 14 15 16 17 18
000
FTUS42 KGSP 251224 AAA
TAFGSP
TAF AMD
KGSP 251224Z 2512/2612 VRB02KT P6SM BKN250
      TEMPO 2512/2515 SCT030
     FM251500 19006KT P6SM SCT040
     FM252200 15006KT P6SM BKN050 PROB30 2606/2611 2SM -SHRA OVC030
     FM261100 15006KT P6SM OVC025 PROB30 2611/2612 2SM -SHRA OVC010=

USA.gov is the U.S. government's official web portal to all federal, state and local government web resources and services.